sensor_id;sensor_type;location;lat;lon;timestamp;P1;durP1;ratioP1;P2;durP2;ratioP2
23236;SDS011;11787;52.018;8.570;2023-04-24T00:01:39;0.85;;;0.25;;
23236;SDS011;11787;52.018;8.570;2023-04-24T00:04:05;1.27;;;0.28;;
23236;SDS011;11787;52.018;8.570;2023-04-24T00:06:32;0.30;;;0.20;;
23236;SDS011;11787;52.018;8.570;2023-04-24T00:08:59;0.50;;;0.30;;
23236;SDS011;11787;52.018;8.570;2023-04-24T00:11:26;0.90;;;0.40;;
23236;SDS011;11787;52.018;8.570;2023-04-24T00:13:52;0.50;;;0.50;;
23236;SDS011;11787;52.018;8.570;2023-04-24T00:16:17;0.80;;;0.60;;
23236;SDS011;11787;52.018;8.570;2023-04-24T00:18:43;0.95;;;0.60;;
23236;SDS011;11787;52.018;8.570;2023-04-24T00:21:09;2.15;;;0.45;;
23236;SDS011;11787;52.018;8.570;2023-04-24T00:23:35;0.70;;;0.50;;
23236;SDS011;11787;52.018;8.570;2023-04-24T00:26:01;1.17;;;0.80;;
23236;SDS011;11787;52.018;8.570;2023-04-24T00:28:27;0.60;;;0.60;;
23236;SDS011;11787;52.018;8.570;2023-04-24T00:30:52;0.63;;;0.55;;
23236;SDS011;11787;52.018;8.570;2023-04-24T00:33:18;2.95;;;0.60;;
23236;SDS011;11787;52.018;8.570;2023-04-24T00:35:44;0.85;;;0.50;;
23236;SDS011;11787;52.018;8.570;2023-04-24T00:38:10;0.38;;;0.38;;
23236;SDS011;11787;52.018;8.570;2023-04-24T00:40:35;1.40;;;0.40;;
23236;SDS011;11787;52.018;8.570;2023-04-24T00:43:01;0.50;;;0.47;;
23236;SDS011;11787;52.018;8.570;2023-04-24T00:45:27;0.82;;;0.30;;
23236;SDS011;11787;52.018;8.570;2023-04-24T00:47:53;1.17;;;0.50;;
23236;SDS011;11787;52.018;8.570;2023-04-24T00:50:18;0.68;;;0.55;;
23236;SDS011;11787;52.018;8.570;2023-04-24T00:52:46;0.75;;;0.40;;
23236;SDS011;11787;52.018;8.570;2023-04-24T00:55:12;0.90;;;0.55;;
23236;SDS011;11787;52.018;8.570;2023-04-24T00:57:37;2.20;;;0.52;;
23236;SDS011;11787;52.018;8.570;2023-04-24T01:00:04;0.50;;;0.40;;
23236;SDS011;11787;52.018;8.570;2023-04-24T01:02:32;1.85;;;0.57;;
23236;SDS011;11787;52.018;8.570;2023-04-24T01:04:59;1.55;;;0.70;;
23236;SDS011;11787;52.018;8.570;2023-04-24T01:07:25;1.70;;;0.40;;
23236;SDS011;11787;52.018;8.570;2023-04-24T01:09:52;1.35;;;0.68;;
23236;SDS011;11787;52.018;8.570;2023-04-24T01:12:18;1.17;;;0.50;;
23236;SDS011;11787;52.018;8.570;2023-04-24T01:14:45;0.70;;;0.70;;
23236;SDS011;11787;52.018;8.570;2023-04-24T01:17:11;1.08;;;0.63;;
23236;SDS011;11787;52.018;8.570;2023-04-24T01:19:37;1.88;;;0.90;;
23236;SDS011;11787;52.018;8.570;2023-04-24T01:24:35;0.98;;;0.60;;
23236;SDS011;11787;52.018;8.570;2023-04-24T01:27:01;0.73;;;0.73;;
23236;SDS011;11787;52.018;8.570;2023-04-24T01:29:27;1.10;;;0.52;;
23236;SDS011;11787;52.018;8.570;2023-04-24T01:31:52;0.60;;;0.60;;
23236;SDS011;11787;52.018;8.570;2023-04-24T01:34:20;1.00;;;0.52;;
23236;SDS011;11787;52.018;8.570;2023-04-24T01:36:45;1.08;;;0.63;;
23236;SDS011;11787;52.018;8.570;2023-04-24T01:39:12;2.58;;;0.70;;
23236;SDS011;11787;52.018;8.570;2023-04-24T01:41:38;1.27;;;0.70;;
23236;SDS011;11787;52.018;8.570;2023-04-24T01:44:03;1.65;;;0.60;;
23236;SDS011;11787;52.018;8.570;2023-04-24T01:46:29;0.75;;;0.52;;
23236;SDS011;11787;52.018;8.570;2023-04-24T01:48:56;0.70;;;0.60;;
23236;SDS011;11787;52.018;8.570;2023-04-24T01:51:24;0.60;;;0.50;;
23236;SDS011;11787;52.018;8.570;2023-04-24T01:53:50;1.52;;;0.50;;
23236;SDS011;11787;52.018;8.570;2023-04-24T01:56:16;0.82;;;0.63;;
23236;SDS011;11787;52.018;8.570;2023-04-24T01:58:42;0.82;;;0.50;;
23236;SDS011;11787;52.018;8.570;2023-04-24T02:01:08;1.65;;;0.30;;
23236;SDS011;11787;52.018;8.570;2023-04-24T02:03:33;3.53;;;0.80;;
23236;SDS011;11787;52.018;8.570;2023-04-24T02:05:59;1.25;;;0.70;;
23236;SDS011;11787;52.018;8.570;2023-04-24T02:08:25;0.82;;;0.80;;
23236;SDS011;11787;52.018;8.570;2023-04-24T02:10:50;1.17;;;0.80;;
23236;SDS011;11787;52.018;8.570;2023-04-24T02:13:16;1.33;;;0.90;;
23236;SDS011;11787;52.018;8.570;2023-04-24T02:15:42;1.95;;;0.70;;
23236;SDS011;11787;52.018;8.570;2023-04-24T02:18:07;0.75;;;0.70;;
23236;SDS011;11787;52.018;8.570;2023-04-24T02:20:33;0.90;;;0.70;;
23236;SDS011;11787;52.018;8.570;2023-04-24T02:23:00;1.00;;;0.68;;
23236;SDS011;11787;52.018;8.570;2023-04-24T02:25:26;0.70;;;0.60;;
23236;SDS011;11787;52.018;8.570;2023-04-24T02:27:52;1.10;;;0.90;;
23236;SDS011;11787;52.018;8.570;2023-04-24T02:30:17;1.30;;;0.80;;
23236;SDS011;11787;52.018;8.570;2023-04-24T02:32:43;1.10;;;1.00;;
23236;SDS011;11787;52.018;8.570;2023-04-24T02:35:08;2.17;;;0.88;;
23236;SDS011;11787;52.018;8.570;2023-04-24T02:37:34;1.60;;;0.60;;
23236;SDS011;11787;52.018;8.570;2023-04-24T02:40:00;1.95;;;1.00;;
23236;SDS011;11787;52.018;8.570;2023-04-24T02:42:25;0.70;;;0.70;;
23236;SDS011;11787;52.018;8.570;2023-04-24T02:44:51;1.20;;;0.70;;
23236;SDS011;11787;52.018;8.570;2023-04-24T02:47:17;1.27;;;0.70;;
23236;SDS011;11787;52.018;8.570;2023-04-24T02:49:42;0.70;;;0.50;;
23236;SDS011;11787;52.018;8.570;2023-04-24T02:52:08;1.13;;;0.47;;
23236;SDS011;11787;52.018;8.570;2023-04-24T02:54:33;0.77;;;0.68;;
23236;SDS011;11787;52.018;8.570;2023-04-24T02:56:59;0.75;;;0.68;;
23236;SDS011;11787;52.018;8.570;2023-04-24T02:59:26;0.47;;;0.40;;
23236;SDS011;11787;52.018;8.570;2023-04-24T03:01:53;1.08;;;0.60;;
23236;SDS011;11787;52.018;8.570;2023-04-24T03:04:19;2.10;;;0.60;;
23236;SDS011;11787;52.018;8.570;2023-04-24T03:06:45;0.80;;;0.60;;
23236;SDS011;11787;52.018;8.570;2023-04-24T03:09:11;1.38;;;0.60;;
23236;SDS011;11787;52.018;8.570;2023-04-24T03:11:36;1.10;;;0.50;;
23236;SDS011;11787;52.018;8.570;2023-04-24T03:14:02;0.55;;;0.50;;
23236;SDS011;11787;52.018;8.570;2023-04-24T03:16:27;1.25;;;0.50;;
23236;SDS011;11787;52.018;8.570;2023-04-24T03:18:53;2.97;;;0.57;;
23236;SDS011;11787;52.018;8.570;2023-04-24T03:21:18;1.13;;;0.60;;
23236;SDS011;11787;52.018;8.570;2023-04-24T03:23:44;0.68;;;0.52;;
23236;SDS011;11787;52.018;8.570;2023-04-24T03:26:10;1.48;;;0.70;;
23236;SDS011;11787;52.018;8.570;2023-04-24T03:28:35;2.58;;;0.60;;
23236;SDS011;11787;52.018;8.570;2023-04-24T03:31:02;1.23;;;0.90;;
23236;SDS011;11787;52.018;8.570;2023-04-24T03:33:28;1.13;;;0.70;;
23236;SDS011;11787;52.018;8.570;2023-04-24T03:35:53;0.90;;;0.65;;
23236;SDS011;11787;52.018;8.570;2023-04-24T03:38:19;0.77;;;0.77;;
23236;SDS011;11787;52.018;8.570;2023-04-24T03:40:45;1.70;;;0.60;;
23236;SDS011;11787;52.018;8.570;2023-04-24T03:43:11;1.80;;;0.80;;
23236;SDS011;11787;52.018;8.570;2023-04-24T03:45:36;1.38;;;0.80;;
23236;SDS011;11787;52.018;8.570;2023-04-24T03:48:02;2.05;;;0.90;;
23236;SDS011;11787;52.018;8.570;2023-04-24T03:50:27;1.83;;;0.85;;
23236;SDS011;11787;52.018;8.570;2023-04-24T03:52:54;1.55;;;0.93;;
23236;SDS011;11787;52.018;8.570;2023-04-24T03:55:20;1.20;;;0.93;;
23236;SDS011;11787;52.018;8.570;2023-04-24T03:57:45;3.63;;;1.00;;
23236;SDS011;11787;52.018;8.570;2023-04-24T04:00:11;2.25;;;1.20;;
23236;SDS011;11787;52.018;8.570;2023-04-24T04:02:37;1.70;;;1.10;;
23236;SDS011;11787;52.018;8.570;2023-04-24T04:05:02;1.60;;;1.00;;
23236;SDS011;11787;52.018;8.570;2023-04-24T04:07:28;2.15;;;1.10;;
23236;SDS011;11787;52.018;8.570;2023-04-24T04:09:54;2.75;;;0.88;;
23236;SDS011;11787;52.018;8.570;2023-04-24T04:12:20;1.40;;;1.15;;
23236;SDS011;11787;52.018;8.570;2023-04-24T04:14:46;2.67;;;1.30;;
23236;SDS011;11787;52.018;8.570;2023-04-24T04:17:11;2.08;;;1.60;;
23236;SDS011;11787;52.018;8.570;2023-04-24T04:19:37;1.67;;;1.20;;
23236;SDS011;11787;52.018;8.570;2023-04-24T04:22:02;1.55;;;1.45;;
23236;SDS011;11787;52.018;8.570;2023-04-24T04:24:28;2.08;;;1.63;;
23236;SDS011;11787;52.018;8.570;2023-04-24T04:26:54;3.20;;;1.40;;
23236;SDS011;11787;52.018;8.570;2023-04-24T04:29:21;1.83;;;1.60;;
23236;SDS011;11787;52.018;8.570;2023-04-24T04:31:47;1.60;;;1.30;;
23236;SDS011;11787;52.018;8.570;2023-04-24T04:34:13;3.25;;;1.58;;
23236;SDS011;11787;52.018;8.570;2023-04-24T04:36:39;2.97;;;1.77;;
23236;SDS011;11787;52.018;8.570;2023-04-24T04:39:06;3.22;;;2.05;;
23236;SDS011;11787;52.018;8.570;2023-04-24T04:41:31;2.42;;;1.55;;
23236;SDS011;11787;52.018;8.570;2023-04-24T04:43:59;1.52;;;1.15;;
23236;SDS011;11787;52.018;8.570;2023-04-24T04:46:25;2.17;;;1.30;;
23236;SDS011;11787;52.018;8.570;2023-04-24T04:48:52;2.55;;;1.98;;
23236;SDS011;11787;52.018;8.570;2023-04-24T04:51:18;2.80;;;2.15;;
23236;SDS011;11787;52.018;8.570;2023-04-24T04:53:43;3.63;;;2.30;;
23236;SDS011;11787;52.018;8.570;2023-04-24T04:56:09;7.45;;;2.92;;
23236;SDS011;11787;52.018;8.570;2023-04-24T04:58:35;3.53;;;2.95;;
23236;SDS011;11787;52.018;8.570;2023-04-24T05:01:01;3.60;;;3.25;;
23236;SDS011;11787;52.018;8.570;2023-04-24T05:03:27;5.93;;;4.60;;
23236;SDS011;11787;52.018;8.570;2023-04-24T05:05:52;6.28;;;4.75;;
23236;SDS011;11787;52.018;8.570;2023-04-24T05:08:18;6.03;;;5.45;;
23236;SDS011;11787;52.018;8.570;2023-04-24T05:10:44;7.07;;;6.22;;
23236;SDS011;11787;52.018;8.570;2023-04-24T05:13:09;10.27;;;6.75;;
23236;SDS011;11787;52.018;8.570;2023-04-24T05:15:35;8.68;;;6.85;;
23236;SDS011;11787;52.018;8.570;2023-04-24T05:18:00;10.23;;;6.18;;
23236;SDS011;11787;52.018;8.570;2023-04-24T05:20:26;8.40;;;6.43;;
23236;SDS011;11787;52.018;8.570;2023-04-24T05:22:52;8.10;;;6.72;;
23236;SDS011;11787;52.018;8.570;2023-04-24T05:25:17;8.10;;;6.78;;
23236;SDS011;11787;52.018;8.570;2023-04-24T05:27:43;7.63;;;6.72;;
23236;SDS011;11787;52.018;8.570;2023-04-24T05:30:09;9.15;;;6.70;;
23236;SDS011;11787;52.018;8.570;2023-04-24T05:32:35;7.10;;;5.97;;
23236;SDS011;11787;52.018;8.570;2023-04-24T05:35:01;8.15;;;7.30;;
23236;SDS011;11787;52.018;8.570;2023-04-24T05:37:26;8.80;;;6.93;;
23236;SDS011;11787;52.018;8.570;2023-04-24T05:39:52;8.65;;;6.35;;
23236;SDS011;11787;52.018;8.570;2023-04-24T05:42:18;10.80;;;6.85;;
23236;SDS011;11787;52.018;8.570;2023-04-24T05:44:43;8.63;;;6.85;;
23236;SDS011;11787;52.018;8.570;2023-04-24T05:47:09;9.05;;;7.40;;
23236;SDS011;11787;52.018;8.570;2023-04-24T05:49:34;9.57;;;7.25;;
23236;SDS011;11787;52.018;8.570;2023-04-24T05:52:00;11.07;;;7.95;;
23236;SDS011;11787;52.018;8.570;2023-04-24T05:54:25;11.77;;;9.20;;
23236;SDS011;11787;52.018;8.570;2023-04-24T05:56:51;9.85;;;8.60;;
23236;SDS011;11787;52.018;8.570;2023-04-24T05:59:19;10.55;;;8.90;;
23236;SDS011;11787;52.018;8.570;2023-04-24T06:01:44;12.23;;;9.00;;
23236;SDS011;11787;52.018;8.570;2023-04-24T06:04:10;11.02;;;8.93;;
23236;SDS011;11787;52.018;8.570;2023-04-24T06:06:38;10.70;;;9.50;;
23236;SDS011;11787;52.018;8.570;2023-04-24T06:09:04;12.30;;;9.95;;
23236;SDS011;11787;52.018;8.570;2023-04-24T06:11:30;11.48;;;9.40;;
23236;SDS011;11787;52.018;8.570;2023-04-24T06:13:55;12.02;;;9.80;;
23236;SDS011;11787;52.018;8.570;2023-04-24T06:16:21;14.55;;;10.88;;
23236;SDS011;11787;52.018;8.570;2023-04-24T06:18:46;11.77;;;9.45;;
23236;SDS011;11787;52.018;8.570;2023-04-24T06:21:12;11.07;;;9.95;;
23236;SDS011;11787;52.018;8.570;2023-04-24T06:23:38;11.27;;;10.07;;
23236;SDS011;11787;52.018;8.570;2023-04-24T06:26:03;11.13;;;9.93;;
23236;SDS011;11787;52.018;8.570;2023-04-24T06:28:29;12.85;;;9.20;;
23236;SDS011;11787;52.018;8.570;2023-04-24T06:30:55;12.68;;;10.57;;
23236;SDS011;11787;52.018;8.570;2023-04-24T06:33:20;12.52;;;10.02;;
23236;SDS011;11787;52.018;8.570;2023-04-24T06:35:46;12.68;;;9.57;;
23236;SDS011;11787;52.018;8.570;2023-04-24T06:38:12;11.45;;;9.80;;
23236;SDS011;11787;52.018;8.570;2023-04-24T06:40:37;11.15;;;9.48;;
23236;SDS011;11787;52.018;8.570;2023-04-24T06:43:03;11.00;;;9.45;;
23236;SDS011;11787;52.018;8.570;2023-04-24T06:45:29;11.25;;;9.43;;
23236;SDS011;11787;52.018;8.570;2023-04-24T06:47:55;10.73;;;9.52;;
23236;SDS011;11787;52.018;8.570;2023-04-24T06:50:21;12.35;;;10.65;;
23236;SDS011;11787;52.018;8.570;2023-04-24T06:52:46;13.50;;;10.35;;
23236;SDS011;11787;52.018;8.570;2023-04-24T06:55:12;12.18;;;10.10;;
23236;SDS011;11787;52.018;8.570;2023-04-24T06:57:38;10.98;;;9.55;;
23236;SDS011;11787;52.018;8.570;2023-04-24T07:00:04;11.18;;;9.93;;
23236;SDS011;11787;52.018;8.570;2023-04-24T07:02:31;12.10;;;10.65;;
23236;SDS011;11787;52.018;8.570;2023-04-24T07:04:57;13.52;;;9.20;;
23236;SDS011;11787;52.018;8.570;2023-04-24T07:07:22;11.98;;;10.05;;
23236;SDS011;11787;52.018;8.570;2023-04-24T07:09:48;12.00;;;9.18;;
23236;SDS011;11787;52.018;8.570;2023-04-24T07:12:15;10.48;;;8.88;;
23236;SDS011;11787;52.018;8.570;2023-04-24T07:14:42;9.43;;;8.43;;
23236;SDS011;11787;52.018;8.570;2023-04-24T07:17:07;10.10;;;8.27;;
23236;SDS011;11787;52.018;8.570;2023-04-24T07:19:33;10.38;;;7.93;;
23236;SDS011;11787;52.018;8.570;2023-04-24T07:22:00;9.93;;;7.55;;
23236;SDS011;11787;52.018;8.570;2023-04-24T07:24:26;9.25;;;8.30;;
23236;SDS011;11787;52.018;8.570;2023-04-24T07:26:52;40.97;;;11.60;;
23236;SDS011;11787;52.018;8.570;2023-04-24T07:29:19;12.75;;;8.93;;
23236;SDS011;11787;52.018;8.570;2023-04-24T07:31:45;11.43;;;8.35;;
23236;SDS011;11787;52.018;8.570;2023-04-24T07:34:11;10.98;;;8.57;;
23236;SDS011;11787;52.018;8.570;2023-04-24T07:36:37;10.75;;;8.93;;
23236;SDS011;11787;52.018;8.570;2023-04-24T07:39:05;10.15;;;8.05;;
23236;SDS011;11787;52.018;8.570;2023-04-24T07:41:31;8.43;;;7.35;;
23236;SDS011;11787;52.018;8.570;2023-04-24T07:43:56;11.52;;;7.53;;
23236;SDS011;11787;52.018;8.570;2023-04-24T07:46:23;8.02;;;6.75;;
23236;SDS011;11787;52.018;8.570;2023-04-24T07:48:48;6.43;;;5.75;;
23236;SDS011;11787;52.018;8.570;2023-04-24T07:51:14;7.40;;;6.20;;
23236;SDS011;11787;52.018;8.570;2023-04-24T07:53:41;6.45;;;5.80;;
23236;SDS011;11787;52.018;8.570;2023-04-24T07:56:07;7.70;;;5.82;;
23236;SDS011;11787;52.018;8.570;2023-04-24T07:58:33;7.50;;;5.35;;
23236;SDS011;11787;52.018;8.570;2023-04-24T08:00:59;5.10;;;4.60;;
23236;SDS011;11787;52.018;8.570;2023-04-24T08:03:25;5.85;;;4.95;;
23236;SDS011;11787;52.018;8.570;2023-04-24T08:05:50;5.07;;;4.57;;
23236;SDS011;11787;52.018;8.570;2023-04-24T08:08:16;4.60;;;4.20;;
23236;SDS011;11787;52.018;8.570;2023-04-24T08:10:42;5.35;;;4.47;;
23236;SDS011;11787;52.018;8.570;2023-04-24T08:13:08;5.85;;;4.68;;
23236;SDS011;11787;52.018;8.570;2023-04-24T08:15:34;5.57;;;4.40;;
23236;SDS011;11787;52.018;8.570;2023-04-24T08:17:59;5.07;;;4.57;;
23236;SDS011;11787;52.018;8.570;2023-04-24T08:20:25;5.05;;;4.32;;
23236;SDS011;11787;52.018;8.570;2023-04-24T08:22:51;4.28;;;3.88;;
23236;SDS011;11787;52.018;8.570;2023-04-24T08:25:17;6.53;;;3.63;;
23236;SDS011;11787;52.018;8.570;2023-04-24T08:27:44;4.78;;;3.38;;
23236;SDS011;11787;52.018;8.570;2023-04-24T08:30:09;6.32;;;3.35;;
23236;SDS011;11787;52.018;8.570;2023-04-24T08:32:35;3.13;;;2.83;;
23236;SDS011;11787;52.018;8.570;2023-04-24T08:35:01;5.13;;;3.90;;
23236;SDS011;11787;52.018;8.570;2023-04-24T08:37:28;3.55;;;3.00;;
23236;SDS011;11787;52.018;8.570;2023-04-24T08:39:54;3.67;;;2.92;;
23236;SDS011;11787;52.018;8.570;2023-04-24T08:42:20;3.85;;;2.33;;
23236;SDS011;11787;52.018;8.570;2023-04-24T08:44:46;3.75;;;2.50;;
23236;SDS011;11787;52.018;8.570;2023-04-24T08:47:13;3.55;;;2.20;;
23236;SDS011;11787;52.018;8.570;2023-04-24T08:49:40;3.33;;;2.30;;
23236;SDS011;11787;52.018;8.570;2023-04-24T08:52:05;2.50;;;2.05;;
23236;SDS011;11787;52.018;8.570;2023-04-24T08:54:31;6.25;;;1.98;;
23236;SDS011;11787;52.018;8.570;2023-04-24T08:57:00;2.17;;;1.70;;
23236;SDS011;11787;52.018;8.570;2023-04-24T08:59:27;2.47;;;2.00;;
23236;SDS011;11787;52.018;8.570;2023-04-24T09:01:53;2.03;;;1.90;;
23236;SDS011;11787;52.018;8.570;2023-04-24T09:04:20;5.43;;;2.58;;
23236;SDS011;11787;52.018;8.570;2023-04-24T09:06:49;2.20;;;2.00;;
23236;SDS011;11787;52.018;8.570;2023-04-24T09:09:16;2.35;;;1.90;;
23236;SDS011;11787;52.018;8.570;2023-04-24T09:11:43;3.90;;;2.08;;
23236;SDS011;11787;52.018;8.570;2023-04-24T09:14:09;4.63;;;1.70;;
23236;SDS011;11787;52.018;8.570;2023-04-24T09:16:36;2.80;;;1.70;;
23236;SDS011;11787;52.018;8.570;2023-04-24T09:19:01;4.90;;;2.33;;
23236;SDS011;11787;52.018;8.570;2023-04-24T09:21:31;4.75;;;2.00;;
23236;SDS011;11787;52.018;8.570;2023-04-24T09:23:58;5.47;;;2.20;;
23236;SDS011;11787;52.018;8.570;2023-04-24T09:26:25;3.97;;;1.92;;
23236;SDS011;11787;52.018;8.570;2023-04-24T09:28:53;42.15;;;6.30;;
23236;SDS011;11787;52.018;8.570;2023-04-24T09:31:19;16.38;;;3.50;;
23236;SDS011;11787;52.018;8.570;2023-04-24T09:34:03;4.68;;;2.05;;
23236;SDS011;11787;52.018;8.570;2023-04-24T09:36:33;2.25;;;1.60;;
23236;SDS011;11787;52.018;8.570;2023-04-24T09:39:03;2.92;;;1.60;;
23236;SDS011;11787;52.018;8.570;2023-04-24T09:41:33;1.25;;;1.13;;
23236;SDS011;11787;52.018;8.570;2023-04-24T09:44:10;1.67;;;1.20;;
23236;SDS011;11787;52.018;8.570;2023-04-24T09:46:41;1.10;;;1.05;;
23236;SDS011;11787;52.018;8.570;2023-04-24T09:49:08;1.55;;;1.17;;
23236;SDS011;11787;52.018;8.570;2023-04-24T09:51:36;2.15;;;1.20;;
23236;SDS011;11787;52.018;8.570;2023-04-24T09:54:03;2.53;;;1.20;;
23236;SDS011;11787;52.018;8.570;2023-04-24T09:56:32;3.38;;;1.23;;
23236;SDS011;11787;52.018;8.570;2023-04-24T09:59:05;1.67;;;1.38;;
23236;SDS011;11787;52.018;8.570;2023-04-24T10:01:32;1.60;;;1.42;;
23236;SDS011;11787;52.018;8.570;2023-04-24T10:03:58;2.05;;;1.50;;
23236;SDS011;11787;52.018;8.570;2023-04-24T10:06:33;1.40;;;1.20;;
23236;SDS011;11787;52.018;8.570;2023-04-24T10:09:00;1.33;;;1.20;;
23236;SDS011;11787;52.018;8.570;2023-04-24T10:11:29;2.47;;;1.35;;
23236;SDS011;11787;52.018;8.570;2023-04-24T10:13:55;1.90;;;1.30;;
23236;SDS011;11787;52.018;8.570;2023-04-24T10:16:22;2.47;;;1.30;;
23236;SDS011;11787;52.018;8.570;2023-04-24T10:18:48;1.23;;;1.05;;
23236;SDS011;11787;52.018;8.570;2023-04-24T10:21:16;1.20;;;1.10;;
23236;SDS011;11787;52.018;8.570;2023-04-24T10:23:42;0.95;;;0.80;;
23236;SDS011;11787;52.018;8.570;2023-04-24T10:26:17;1.80;;;1.00;;
23236;SDS011;11787;52.018;8.570;2023-04-24T10:28:47;2.53;;;0.85;;
23236;SDS011;11787;52.018;8.570;2023-04-24T10:31:13;1.10;;;0.65;;
23236;SDS011;11787;52.018;8.570;2023-04-24T10:33:40;0.90;;;0.60;;
23236;SDS011;11787;52.018;8.570;2023-04-24T10:36:07;0.95;;;0.70;;
23236;SDS011;11787;52.018;8.570;2023-04-24T10:38:35;2.40;;;1.38;;
23236;SDS011;11787;52.018;8.570;2023-04-24T10:41:07;1.38;;;1.25;;
23236;SDS011;11787;52.018;8.570;2023-04-24T10:43:44;2.03;;;1.77;;
23236;SDS011;11787;52.018;8.570;2023-04-24T10:46:10;1.88;;;1.65;;
23236;SDS011;11787;52.018;8.570;2023-04-24T10:51:17;1.80;;;1.60;;
23236;SDS011;11787;52.018;8.570;2023-04-24T10:53:42;2.17;;;1.98;;
23236;SDS011;11787;52.018;8.570;2023-04-24T10:56:08;3.13;;;2.25;;
23236;SDS011;11787;52.018;8.570;2023-04-24T11:01:24;3.70;;;3.10;;
23236;SDS011;11787;52.018;8.570;2023-04-24T11:03:54;3.70;;;2.90;;
23236;SDS011;11787;52.018;8.570;2023-04-24T11:06:28;3.67;;;3.15;;
23236;SDS011;11787;52.018;8.570;2023-04-24T11:09:03;3.60;;;3.20;;
23236;SDS011;11787;52.018;8.570;2023-04-24T11:11:31;3.42;;;3.13;;
23236;SDS011;11787;52.018;8.570;2023-04-24T11:16:29;3.50;;;3.20;;
23236;SDS011;11787;52.018;8.570;2023-04-24T11:19:00;3.67;;;3.10;;
23236;SDS011;11787;52.018;8.570;2023-04-24T11:21:46;4.35;;;3.50;;
23236;SDS011;11787;52.018;8.570;2023-04-24T11:24:24;3.20;;;2.90;;
23236;SDS011;11787;52.018;8.570;2023-04-24T11:32:14;3.20;;;2.90;;
23236;SDS011;11787;52.018;8.570;2023-04-24T11:34:40;2.78;;;2.20;;
23236;SDS011;11787;52.018;8.570;2023-04-24T11:37:09;2.33;;;2.03;;
23236;SDS011;11787;52.018;8.570;2023-04-24T11:39:38;2.38;;;2.15;;
23236;SDS011;11787;52.018;8.570;2023-04-24T11:42:04;2.28;;;2.03;;
23236;SDS011;11787;52.018;8.570;2023-04-24T11:44:31;2.33;;;1.17;;
23236;SDS011;11787;52.018;8.570;2023-04-24T11:46:59;1.90;;;1.38;;
23236;SDS011;11787;52.018;8.570;2023-04-24T11:49:25;1.20;;;1.10;;
23236;SDS011;11787;52.018;8.570;2023-04-24T11:51:54;1.15;;;1.05;;
23236;SDS011;11787;52.018;8.570;2023-04-24T11:54:20;1.83;;;1.00;;
23236;SDS011;11787;52.018;8.570;2023-04-24T11:56:46;0.90;;;0.80;;
23236;SDS011;11787;52.018;8.570;2023-04-24T11:59:12;1.88;;;0.80;;
23236;SDS011;11787;52.018;8.570;2023-04-24T12:01:44;1.05;;;0.95;;
23236;SDS011;11787;52.018;8.570;2023-04-24T12:04:11;1.35;;;1.25;;
23236;SDS011;11787;52.018;8.570;2023-04-24T12:06:37;2.30;;;1.42;;
23236;SDS011;11787;52.018;8.570;2023-04-24T12:09:02;2.15;;;1.95;;
23236;SDS011;11787;52.018;8.570;2023-04-24T12:11:28;2.85;;;1.77;;
23236;SDS011;11787;52.018;8.570;2023-04-24T12:13:53;1.90;;;1.80;;
23236;SDS011;11787;52.018;8.570;2023-04-24T12:16:19;2.45;;;2.25;;
23236;SDS011;11787;52.018;8.570;2023-04-24T12:18:45;2.30;;;2.10;;
23236;SDS011;11787;52.018;8.570;2023-04-24T12:21:15;2.45;;;1.73;;
23236;SDS011;11787;52.018;8.570;2023-04-24T12:23:42;3.08;;;1.80;;
23236;SDS011;11787;52.018;8.570;2023-04-24T12:26:10;1.90;;;1.60;;
23236;SDS011;11787;52.018;8.570;2023-04-24T12:28:37;3.10;;;1.40;;
23236;SDS011;11787;52.018;8.570;2023-04-24T12:31:03;3.67;;;1.45;;
23236;SDS011;11787;52.018;8.570;2023-04-24T12:33:34;2.85;;;2.05;;
23236;SDS011;11787;52.018;8.570;2023-04-24T12:36:00;3.33;;;2.05;;
23236;SDS011;11787;52.018;8.570;2023-04-24T12:38:27;5.07;;;2.63;;
23236;SDS011;11787;52.018;8.570;2023-04-24T12:41:05;2.97;;;2.35;;
23236;SDS011;11787;52.018;8.570;2023-04-24T12:43:32;4.05;;;2.75;;
23236;SDS011;11787;52.018;8.570;2023-04-24T12:45:58;4.32;;;3.03;;
23236;SDS011;11787;52.018;8.570;2023-04-24T12:48:24;3.58;;;3.10;;
23236;SDS011;11787;52.018;8.570;2023-04-24T12:50:53;3.83;;;3.38;;
23236;SDS011;11787;52.018;8.570;2023-04-24T12:53:20;4.40;;;3.53;;
23236;SDS011;11787;52.018;8.570;2023-04-24T12:55:45;4.15;;;3.75;;
23236;SDS011;11787;52.018;8.570;2023-04-24T12:58:17;5.22;;;3.50;;
23236;SDS011;11787;52.018;8.570;2023-04-24T13:00:43;5.30;;;4.20;;
23236;SDS011;11787;52.018;8.570;2023-04-24T13:03:10;6.20;;;4.05;;
23236;SDS011;11787;52.018;8.570;2023-04-24T13:05:36;4.85;;;3.88;;
23236;SDS011;11787;52.018;8.570;2023-04-24T13:08:02;5.90;;;3.83;;
23236;SDS011;11787;52.018;8.570;2023-04-24T13:10:27;4.72;;;2.85;;
23236;SDS011;11787;52.018;8.570;2023-04-24T13:12:53;5.13;;;3.60;;
23236;SDS011;11787;52.018;8.570;2023-04-24T13:15:19;5.95;;;3.25;;
23236;SDS011;11787;52.018;8.570;2023-04-24T13:17:45;6.10;;;3.90;;
23236;SDS011;11787;52.018;8.570;2023-04-24T13:20:10;5.47;;;3.70;;
23236;SDS011;11787;52.018;8.570;2023-04-24T13:22:36;4.03;;;3.03;;
23236;SDS011;11787;52.018;8.570;2023-04-24T13:25:02;5.03;;;3.42;;
23236;SDS011;11787;52.018;8.570;2023-04-24T13:27:27;4.35;;;3.00;;
23236;SDS011;11787;52.018;8.570;2023-04-24T13:29:53;6.25;;;3.22;;
23236;SDS011;11787;52.018;8.570;2023-04-24T13:32:19;5.88;;;3.20;;
23236;SDS011;11787;52.018;8.570;2023-04-24T13:34:44;5.53;;;3.70;;
23236;SDS011;11787;52.018;8.570;2023-04-24T13:37:10;6.55;;;3.13;;
23236;SDS011;11787;52.018;8.570;2023-04-24T13:39:36;7.35;;;3.60;;
23236;SDS011;11787;52.018;8.570;2023-04-24T13:42:02;6.25;;;3.40;;
23236;SDS011;11787;52.018;8.570;2023-04-24T13:44:27;5.35;;;3.67;;
23236;SDS011;11787;52.018;8.570;2023-04-24T13:46:53;4.90;;;2.25;;
23236;SDS011;11787;52.018;8.570;2023-04-24T13:49:22;6.10;;;3.00;;
23236;SDS011;11787;52.018;8.570;2023-04-24T13:51:51;5.80;;;4.20;;
23236;SDS011;11787;52.018;8.570;2023-04-24T13:54:18;5.95;;;3.28;;
23236;SDS011;11787;52.018;8.570;2023-04-24T13:56:44;10.13;;;4.60;;
23236;SDS011;11787;52.018;8.570;2023-04-24T13:59:11;9.38;;;4.40;;
23236;SDS011;11787;52.018;8.570;2023-04-24T14:01:37;14.23;;;5.18;;
23236;SDS011;11787;52.018;8.570;2023-04-24T14:04:03;10.50;;;4.60;;
23236;SDS011;11787;52.018;8.570;2023-04-24T14:06:29;6.60;;;4.68;;
23236;SDS011;11787;52.018;8.570;2023-04-24T14:08:56;9.25;;;5.20;;
23236;SDS011;11787;52.018;8.570;2023-04-24T14:29:16;11.20;;;4.75;;
23236;SDS011;11787;52.018;8.570;2023-04-24T14:31:42;11.05;;;5.47;;
23236;SDS011;11787;52.018;8.570;2023-04-24T14:34:08;9.15;;;5.50;;
23236;SDS011;11787;52.018;8.570;2023-04-24T14:36:34;15.68;;;5.30;;
23236;SDS011;11787;52.018;8.570;2023-04-24T14:39:00;10.65;;;4.80;;
23236;SDS011;11787;52.018;8.570;2023-04-24T14:41:30;7.82;;;4.13;;
23236;SDS011;11787;52.018;8.570;2023-04-24T14:43:56;14.90;;;5.78;;
23236;SDS011;11787;52.018;8.570;2023-04-24T14:46:22;9.68;;;4.72;;
23236;SDS011;11787;52.018;8.570;2023-04-24T14:48:47;11.95;;;5.05;;
23236;SDS011;11787;52.018;8.570;2023-04-24T14:51:13;7.50;;;4.32;;
23236;SDS011;11787;52.018;8.570;2023-04-24T14:53:38;9.95;;;4.57;;
23236;SDS011;11787;52.018;8.570;2023-04-24T14:56:04;11.07;;;5.53;;
23236;SDS011;11787;52.018;8.570;2023-04-24T14:58:30;6.70;;;4.32;;
23236;SDS011;11787;52.018;8.570;2023-04-24T15:00:55;6.32;;;3.83;;
23236;SDS011;11787;52.018;8.570;2023-04-24T15:03:21;9.40;;;4.32;;
23236;SDS011;11787;52.018;8.570;2023-04-24T15:05:48;9.73;;;3.97;;
23236;SDS011;11787;52.018;8.570;2023-04-24T15:08:13;6.68;;;3.10;;
23236;SDS011;11787;52.018;8.570;2023-04-24T15:10:39;6.47;;;3.42;;
23236;SDS011;11787;52.018;8.570;2023-04-24T15:13:05;8.50;;;3.58;;
23236;SDS011;11787;52.018;8.570;2023-04-24T15:15:30;7.30;;;3.65;;